Time;durP1;ratioP1;P1;durP2;ratioP2;P2;SDS_P1;SDS_P2;PMS_P1;PMS_P2;Temp;Humidity;BMP_temperature;BMP_pressure;BME280_temperature;BME280_humidity;BME280_pressure;Samples;Min_cycle;Max_cycle;Signal;HPM_P1;HPM_P2
2022/06/30 00:01:28;;;;;;;2.40;1.40;;;22.90;90.90;;;;;;5034887;28;20099;-71
2022/06/30 00:03:53;;;;;;;1.45;1.20;;;22.80;91.00;;;;;;5035830;28;20492;-71
2022/06/30 00:06:19;;;;;;;2.13;1.60;;;22.80;91.10;;;;;;5035332;28;20029;-71
2022/06/30 00:08:44;;;;;;;1.83;1.25;;;22.90;91.30;;;;;;5035070;28;20018;-71
2022/06/30 00:11:10;;;;;;;1.90;1.33;;;22.80;91.30;;;;;;5035236;28;20025;-72
2022/06/30 00:13:37;;;;;;;2.25;1.65;;;22.80;91.50;;;;;;5035208;28;20029;-71
2022/06/30 00:16:04;;;;;;;3.20;1.83;;;22.80;91.60;;;;;;5035040;28;20374;-70
2022/06/30 00:18:30;;;;;;;4.00;1.77;;;22.80;91.70;;;;;;5035261;28;20033;-71
2022/06/30 00:20:56;;;;;;;2.08;1.58;;;22.80;91.80;;;;;;5035640;28;20053;-71
2022/06/30 00:23:22;;;;;;;1.70;1.52;;;22.80;91.90;;;;;;5034216;28;20118;-71
2022/06/30 00:25:47;;;;;;;1.90;1.63;;;22.80;92.10;;;;;;5034308;28;20104;-71
2022/06/30 00:28:13;;;;;;;2.10;1.60;;;22.80;92.30;;;;;;5033583;28;20133;-72
2022/06/30 00:30:39;;;;;;;3.25;1.83;;;22.80;92.40;;;;;;5035281;28;20034;-71
2022/06/30 00:33:04;;;;;;;1.92;1.50;;;22.80;92.40;;;;;;5035329;28;20048;-71
2022/06/30 00:35:30;;;;;;;2.53;1.77;;;22.80;92.40;;;;;;5034684;28;20040;-71
2022/06/30 00:37:56;;;;;;;2.38;1.52;;;22.80;92.40;;;;;;5035121;28;20029;-71
2022/06/30 00:40:21;;;;;;;1.60;1.42;;;22.80;92.40;;;;;;5034481;28;20103;-71
2022/06/30 00:42:47;;;;;;;2.08;1.70;;;22.90;92.30;;;;;;5034163;28;20040;-71
2022/06/30 00:45:13;;;;;;;7.72;1.90;;;23.00;92.20;;;;;;5034176;28;20083;-71
2022/06/30 00:47:40;;;;;;;2.28;1.85;;;23.00;92.10;;;;;;5034913;28;20026;-71
2022/06/30 00:50:06;;;;;;;3.05;1.58;;;23.00;91.90;;;;;;5034887;28;20116;-71
2022/06/30 00:52:35;;;;;;;2.50;1.88;;;23.00;92.00;;;;;;5034177;28;20072;-71
2022/06/30 00:55:03;;;;;;;1.52;1.35;;;23.00;92.00;;;;;;5034670;28;20025;-72
2022/06/30 00:57:30;;;;;;;2.33;1.50;;;23.10;91.90;;;;;;5033749;28;20418;-72
2022/06/30 00:59:57;;;;;;;2.33;1.58;;;23.10;91.90;;;;;;5033987;28;20389;-71
2022/06/30 01:02:24;;;;;;;2.83;2.08;;;23.10;91.60;;;;;;5033386;28;20470;-71
2022/06/30 01:04:54;;;;;;;3.28;2.00;;;23.20;91.70;;;;;;5033761;28;20108;-71
2022/06/30 01:07:21;;;;;;;3.78;1.70;;;23.20;91.60;;;;;;5033389;28;20060;-71
2022/06/30 01:12:44;;;;;;;2.28;1.52;;;23.30;91.40;;;;;;5033303;28;20125;-71
2022/06/30 01:15:15;;;;;;;3.40;1.90;;;23.30;91.30;;;;;;5034514;28;20026;-71
2022/06/30 01:17:41;;;;;;;2.15;1.92;;;23.30;91.30;;;;;;5033076;28;20489;-71
2022/06/30 01:20:08;;;;;;;2.75;1.67;;;23.40;91.20;;;;;;5033867;28;20056;-71
2022/06/30 01:22:33;;;;;;;2.85;1.60;;;23.40;91.20;;;;;;5032998;28;20040;-71
2022/06/30 01:24:59;;;;;;;2.20;1.90;;;23.50;91.00;;;;;;5033689;28;20405;-72
2022/06/30 01:27:25;;;;;;;2.67;1.77;;;23.50;90.80;;;;;;5033763;28;20049;-71
2022/06/30 01:29:51;;;;;;;3.00;1.60;;;23.50;90.90;;;;;;5033350;28;20389;-71
2022/06/30 01:32:17;;;;;;;3.85;1.88;;;23.50;90.80;;;;;;5033184;28;20095;-72
2022/06/30 01:34:43;;;;;;;3.30;1.98;;;23.50;90.70;;;;;;5033355;28;20029;-71
2022/06/30 01:37:08;;;;;;;3.90;1.60;;;23.50;90.80;;;;;;5032995;28;20029;-71
2022/06/30 01:39:34;;;;;;;2.80;1.75;;;23.50;91.00;;;;;;5033080;28;20017;-71
2022/06/30 01:42:01;;;;;;;2.72;1.83;;;23.50;90.70;;;;;;5032871;28;20314;-71
2022/06/30 01:44:27;;;;;;;4.00;2.33;;;23.50;90.90;;;;;;5033204;28;20030;-71
2022/06/30 01:46:52;;;;;;;2.22;2.03;;;23.60;90.70;;;;;;5033417;28;20027;-71
2022/06/30 01:49:18;;;;;;;1.90;1.60;;;23.60;90.70;;;;;;5032151;28;20025;-71
2022/06/30 01:51:44;;;;;;;2.63;1.90;;;23.60;90.40;;;;;;5033012;28;20029;-71
2022/06/30 01:54:10;;;;;;;3.65;1.65;;;23.60;90.40;;;;;;5032957;28;20079;-71
2022/06/30 01:56:36;;;;;;;3.03;2.08;;;23.60;90.50;;;;;;5033002;28;20028;-71
2022/06/30 01:59:03;;;;;;;3.45;1.77;;;23.60;90.50;;;;;;5032981;28;20029;-71
2022/06/30 02:01:28;;;;;;;2.05;1.65;;;23.60;90.50;;;;;;5032612;28;20029;-71
2022/06/30 02:03:54;;;;;;;4.30;2.63;;;23.60;90.50;;;;;;5015000;28;20458;-72
2022/06/30 02:06:20;;;;;;;3.10;1.52;;;23.50;90.70;;;;;;5033356;28;20331;-72
2022/06/30 02:08:46;;;;;;;1.83;1.60;;;23.50;90.80;;;;;;5033004;28;20025;-71
2022/06/30 02:11:11;;;;;;;2.33;1.80;;;23.40;91.00;;;;;;5033602;28;20036;-71
2022/06/30 02:13:37;;;;;;;2.63;1.75;;;23.40;91.40;;;;;;5033003;28;20043;-71
2022/06/30 02:16:03;;;;;;;1.88;1.67;;;23.40;91.20;;;;;;5033586;28;20362;-71
2022/06/30 02:18:28;;;;;;;3.78;1.65;;;23.40;91.30;;;;;;5032558;28;20025;-72
2022/06/30 02:20:54;;;;;;;1.63;1.45;;;23.30;91.40;;;;;;5033293;28;20096;-71
2022/06/30 02:23:19;;;;;;;1.63;1.38;;;23.30;91.50;;;;;;5032480;28;20056;-71
2022/06/30 02:25:45;;;;;;;3.03;1.92;;;23.30;91.50;;;;;;5033092;28;20034;-71
2022/06/30 02:28:11;;;;;;;2.85;1.83;;;23.30;91.70;;;;;;5032624;28;20147;-71
2022/06/30 02:30:37;;;;;;;1.67;1.40;;;23.20;91.90;;;;;;5032711;28;20107;-71
2022/06/30 02:33:03;;;;;;;3.35;2.00;;;23.20;92.20;;;;;;5032872;28;20038;-71
2022/06/30 02:35:29;;;;;;;2.10;1.90;;;23.20;92.30;;;;;;5032458;28;20025;-71
2022/06/30 02:37:54;;;;;;;3.30;2.00;;;23.10;92.60;;;;;;5032893;28;20058;-71
2022/06/30 02:40:20;;;;;;;2.42;1.48;;;23.10;93.00;;;;;;5032374;28;20076;-71
2022/06/30 02:42:46;;;;;;;4.03;2.03;;;23.00;93.20;;;;;;5032952;28;20034;-71
2022/06/30 02:45:12;;;;;;;2.63;1.80;;;23.00;93.60;;;;;;5032318;28;20029;-71
2022/06/30 02:47:40;;;;;;;1.85;1.60;;;22.90;93.80;;;;;;5032152;28;20026;-71
2022/06/30 02:50:08;;;;;;;3.15;2.17;;;22.80;94.00;;;;;;5032754;28;20022;-71
2022/06/30 02:52:36;;;;;;;2.38;1.58;;;22.80;94.40;;;;;;5031674;28;20033;-71
2022/06/30 02:55:03;;;;;;;1.73;1.63;;;22.80;94.60;;;;;;5032605;28;20029;-71
2022/06/30 02:57:29;;;;;;;1.77;1.42;;;22.80;94.90;;;;;;5032149;28;20032;-72
2022/06/30 02:59:55;;;;;;;2.70;1.85;;;22.80;95.10;;;;;;5032732;28;20030;-71
2022/06/30 03:02:21;;;;;;;2.97;2.38;;;22.80;95.00;;;;;;5031922;28;20033;-72
2022/06/30 03:04:48;;;;;;;2.85;1.83;;;22.80;94.90;;;;;;5031731;28;20030;-71
2022/06/30 03:07:13;;;;;;;2.72;1.63;;;22.90;94.90;;;;;;5032104;28;20085;-71
2022/06/30 03:09:39;;;;;;;2.42;1.67;;;22.90;94.80;;;;;;5031669;28;20056;-72
2022/06/30 03:12:05;;;;;;;2.25;1.90;;;22.90;95.00;;;;;;5032233;28;20032;-72
2022/06/30 03:14:31;;;;;;;1.95;1.50;;;23.00;95.00;;;;;;5014188;28;20488;-72
2022/06/30 03:16:57;;;;;;;1.85;1.60;;;23.00;94.80;;;;;;5032154;28;20030;-72
2022/06/30 03:19:22;;;;;;;2.55;1.55;;;23.00;94.80;;;;;;5031268;28;20025;-72
2022/06/30 03:21:49;;;;;;;2.75;1.73;;;23.10;94.70;;;;;;5032443;28;20032;-72
2022/06/30 03:24:14;;;;;;;3.17;1.80;;;23.10;94.70;;;;;;5032432;28;20417;-72
2022/06/30 03:26:40;;;;;;;1.83;1.58;;;23.10;94.30;;;;;;5031524;28;20045;-71
2022/06/30 03:29:06;;;;;;;3.58;2.00;;;23.20;94.20;;;;;;5031699;28;20036;-71
2022/06/30 03:31:32;;;;;;;2.05;1.67;;;23.20;94.30;;;;;;5032043;28;20044;-71
2022/06/30 03:33:58;;;;;;;1.60;1.50;;;23.20;94.10;;;;;;5032041;28;20103;-71
2022/06/30 03:36:24;;;;;;;2.65;1.60;;;23.20;94.20;;;;;;5030453;28;20034;-71
2022/06/30 03:38:50;;;;;;;2.35;1.75;;;23.30;94.10;;;;;;5031087;28;20029;-71
2022/06/30 03:41:15;;;;;;;2.10;1.58;;;23.30;93.90;;;;;;5031351;28;20087;-71
2022/06/30 03:43:41;;;;;;;2.25;2.05;;;23.30;93.80;;;;;;5031194;28;20029;-72
2022/06/30 03:46:07;;;;;;;2.05;1.48;;;23.30;93.70;;;;;;5029116;28;20021;-72
2022/06/30 03:48:35;;;;;;;1.90;1.60;;;23.30;93.90;;;;;;5014096;28;20025;-72
2022/06/30 03:51:01;;;;;;;2.00;1.80;;;23.40;93.80;;;;;;5030619;28;20063;-72
2022/06/30 03:53:27;;;;;;;1.95;1.63;;;23.40;93.70;;;;;;5031115;28;20048;-72
2022/06/30 03:55:53;;;;;;;1.73;1.58;;;23.50;93.40;;;;;;5032039;28;20025;-72
2022/06/30 03:58:18;;;;;;;2.15;1.60;;;23.50;93.20;;;;;;5031707;28;20021;-72
2022/06/30 04:00:44;;;;;;;2.60;1.90;;;23.50;93.20;;;;;;5031983;28;20136;-71
2022/06/30 04:03:10;;;;;;;2.30;1.55;;;23.60;93.00;;;;;;5031646;28;20029;-72
2022/06/30 04:05:36;;;;;;;1.80;1.67;;;23.60;93.00;;;;;;5034951;28;20029;-72
2022/06/30 04:08:01;;;;;;;3.03;1.90;;;23.60;92.90;;;;;;5035336;28;20037;-72
2022/06/30 04:10:27;;;;;;;2.17;1.90;;;23.70;92.80;;;;;;5034485;28;20026;-72
2022/06/30 04:12:53;;;;;;;5.55;2.15;;;23.80;92.70;;;;;;5035128;28;20036;-72
2022/06/30 04:15:18;;;;;;;2.28;1.50;;;23.80;92.60;;;;;;5034967;28;20458;-74
2022/06/30 04:17:44;;;;;;;1.92;1.77;;;23.90;92.50;;;;;;5035327;28;20026;-72
2022/06/30 04:20:15;;;;;;;3.47;2.05;;;24.00;92.30;;;;;;5035063;28;20466;-72
2022/06/30 04:22:52;;;;;;;2.70;1.85;;;24.00;92.10;;;;;;5034797;28;20130;-72
2022/06/30 04:25:19;;;;;;;1.95;1.65;;;24.10;91.90;;;;;;5035154;28;20033;-72
2022/06/30 04:27:50;;;;;;;3.88;2.17;;;24.20;91.80;;;;;;5035392;28;20049;-72
2022/06/30 04:32:37;;;;;;;;;;;24.20;91.70;;;;;;5035591;28;20048;-72
2022/06/30 04:33:02;;;;;;;3.30;2.17;;;24.30;91.60;;;;;;5035141;28;19905;-71
2022/06/30 04:35:27;;;;;;;3.28;1.85;;;24.40;91.40;;;;;;5034723;28;20474;-71
2022/06/30 04:37:57;;;;;;;4.20;1.65;;;24.50;91.40;;;;;;5035100;28;20029;-71
2022/06/30 04:43:06;;;;;;;2.30;2.05;;;24.80;90.30;;;;;;5034781;28;20043;-72
2022/06/30 04:45:32;;;;;;;1.73;1.42;;;24.80;89.90;;;;;;5034101;28;20026;-72
2022/06/30 04:47:58;;;;;;;2.92;2.17;;;24.90;89.70;;;;;;5030921;28;20339;-71
2022/06/30 04:50:23;;;;;;;3.15;2.08;;;24.90;89.10;;;;;;5034309;28;20461;-71
2022/06/30 04:52:49;;;;;;;5.57;3.13;;;24.90;89.10;;;;;;5034695;28;20042;-71
2022/06/30 04:55:14;;;;;;;2.17;1.85;;;24.90;88.10;;;;;;5034171;28;20029;-72
2022/06/30 04:57:40;;;;;;;3.00;1.65;;;24.90;88.80;;;;;;5034079;28;20382;-72
2022/06/30 05:00:07;;;;;;;3.95;1.80;;;24.90;88.70;;;;;;5034515;28;20040;-72
2022/06/30 05:02:33;;;;;;;2.58;1.63;;;25.10;88.80;;;;;;5034488;28;20032;-73
2022/06/30 05:04:59;;;;;;;2.58;1.80;;;25.20;87.60;;;;;;5034293;28;20386;-71
2022/06/30 05:07:24;;;;;;;2.70;2.10;;;25.50;88.20;;;;;;5034084;28;20032;-71
2022/06/30 05:09:50;;;;;;;3.17;1.80;;;25.80;85.30;;;;;;5034499;28;20064;-72
2022/06/30 05:12:16;;;;;;;3.00;2.08;;;26.10;84.00;;;;;;5034294;28;20036;-72
2022/06/30 05:14:41;;;;;;;2.58;1.80;;;26.30;83.20;;;;;;5033585;28;20251;-72
2022/06/30 05:17:07;;;;;;;3.70;1.88;;;26.80;82.10;;;;;;5030541;28;20638;-71
2022/06/30 05:19:33;;;;;;;4.72;2.28;;;27.30;80.10;;;;;;5031878;28;20029;-70
2022/06/30 05:21:59;;;;;;;2.20;1.95;;;27.40;75.50;;;;;;5016178;28;20114;-71
2022/06/30 05:27:10;;;;;;;2.35;1.75;;;27.50;75.30;;;;;;5028486;28;20075;-72
2022/06/30 05:29:35;;;;;;;5.78;2.08;;;27.40;74.60;;;;;;5033138;28;20521;-72
2022/06/30 05:32:01;;;;;;;2.30;1.75;;;27.40;74.40;;;;;;5033539;28;20064;-72
2022/06/30 05:34:27;;;;;;;1.70;1.60;;;27.20;74.70;;;;;;5033188;28;20021;-72
2022/06/30 05:36:52;;;;;;;2.00;1.30;;;27.20;76.30;;;;;;5033459;28;20083;-72
2022/06/30 05:39:18;;;;;;;2.38;1.80;;;27.30;76.60;;;;;;5033508;28;20022;-72
2022/06/30 05:41:44;;;;;;;2.03;1.83;;;27.30;74.70;;;;;;5033139;28;20060;-72
2022/06/30 05:44:10;;;;;;;2.17;1.77;;;27.30;74.60;;;;;;5033479;28;20033;-72
2022/06/30 05:46:36;;;;;;;3.03;1.80;;;27.30;74.30;;;;;;5032872;28;20032;-72
2022/06/30 05:49:02;;;;;;;2.00;1.50;;;27.10;74.00;;;;;;5033632;28;20431;-71
2022/06/30 05:51:28;;;;;;;4.07;2.10;;;26.90;74.70;;;;;;5032973;28;20384;-71
2022/06/30 05:53:54;;;;;;;2.65;2.03;;;26.80;75.40;;;;;;5033240;28;20017;-72
2022/06/30 05:56:20;;;;;;;2.78;1.77;;;26.60;76.10;;;;;;5033227;28;20037;-72
2022/06/30 05:58:45;;;;;;;2.30;1.63;;;26.50;76.50;;;;;;5020890;28;20467;-73
2022/06/30 06:01:11;;;;;;;2.83;1.90;;;26.40;77.10;;;;;;5013435;28;20121;-71
2022/06/30 06:03:37;;;;;;;4.22;1.95;;;26.40;77.00;;;;;;5013088;28;20032;-71
2022/06/30 06:06:03;;;;;;;3.25;2.00;;;26.40;76.50;;;;;;5013340;28;20030;-71
2022/06/30 06:08:28;;;;;;;2.50;1.83;;;26.40;78.60;;;;;;5012535;28;20026;-72
2022/06/30 06:10:54;;;;;;;2.80;2.08;;;26.80;77.10;;;;;;5013159;28;20022;-71
2022/06/30 06:13:20;;;;;;;2.42;1.65;;;27.70;74.80;;;;;;5013329;28;20034;-71
2022/06/30 06:15:46;;;;;;;2.58;1.90;;;29.50;71.70;;;;;;5012908;28;20072;-71
2022/06/30 06:18:11;;;;;;;4.10;1.80;;;31.00;64.30;;;;;;5013346;28;20034;-71
2022/06/30 06:20:37;;;;;;;1.83;1.40;;;32.10;60.10;;;;;;5017969;28;20017;-71
2022/06/30 06:23:03;;;;;;;3.80;1.35;;;33.10;57.70;;;;;;5015209;28;20033;-71
2022/06/30 06:25:28;;;;;;;1.30;1.10;;;33.90;54.60;;;;;;5014478;28;20033;-72
2022/06/30 06:30:38;;;;;;;3.47;1.65;;;32.90;51.20;;;;;;5032530;28;20080;-71
2022/06/30 06:33:04;;;;;;;2.25;1.40;;;31.70;53.00;;;;;;5032507;28;20034;-70
2022/06/30 06:35:30;;;;;;;3.05;1.55;;;30.90;55.90;;;;;;5031909;28;20025;-71
2022/06/30 06:37:55;;;;;;;1.70;1.60;;;30.20;57.00;;;;;;5032470;28;20029;-72
2022/06/30 06:40:21;;;;;;;3.85;2.00;;;29.70;58.40;;;;;;5032688;28;20084;-71
2022/06/30 06:42:47;;;;;;;1.40;1.30;;;29.20;60.70;;;;;;5031911;28;20325;-71
2022/06/30 06:45:12;;;;;;;1.65;1.52;;;28.80;62.10;;;;;;5014785;28;20536;-72
2022/06/30 06:47:38;;;;;;;3.92;1.95;;;28.50;63.60;;;;;;5032098;28;20168;-72
2022/06/30 06:50:06;;;;;;;5.38;1.70;;;28.30;64.50;;;;;;5032591;28;20046;-71
2022/06/30 06:52:32;;;;;;;2.75;1.77;;;28.10;64.80;;;;;;5031877;28;20473;-72
2022/06/30 06:54:58;;;;;;;2.28;2.08;;;27.90;64.90;;;;;;5032350;28;20037;-72
2022/06/30 06:57:24;;;;;;;2.00;1.60;;;27.80;65.20;;;;;;5014399;28;20030;-72
2022/06/30 06:59:49;;;;;;;2.85;1.60;;;28.20;66.90;;;;;;5031821;28;20025;-72
2022/06/30 07:02:15;;;;;;;1.83;1.58;;;28.60;64.60;;;;;;5032496;28;20029;-72
2022/06/30 07:04:41;;;;;;;4.93;1.52;;;29.00;64.00;;;;;;5031848;28;20409;-71
2022/06/30 07:07:06;;;;;;;1.42;1.33;;;29.70;61.60;;;;;;5032480;28;20481;-72
2022/06/30 07:09:32;;;;;;;1.75;1.20;;;30.20;59.20;;;;;;5032279;28;20037;-72
2022/06/30 07:11:58;;;;;;;1.48;1.27;;;30.80;58.00;;;;;;5032326;28;20057;-72
2022/06/30 07:14:23;;;;;;;2.13;1.90;;;31.30;57.20;;;;;;5032288;28;20049;-72
2022/06/30 07:16:49;;;;;;;1.67;1.17;;;31.80;55.40;;;;;;5031794;28;20025;-71
2022/06/30 07:19:15;;;;;;;1.45;1.20;;;32.40;55.20;;;;;;5032535;28;20064;-72
2022/06/30 07:21:41;;;;;;;1.83;1.13;;;33.00;53.50;;;;;;5031634;28;20034;-72
2022/06/30 07:24:07;;;;;;;1.58;1.20;;;33.50;51.30;;;;;;5032212;28;20033;-71
2022/06/30 07:26:32;;;;;;;3.45;1.30;;;34.20;51.50;;;;;;5031375;28;20509;-72
2022/06/30 07:28:58;;;;;;;1.55;1.40;;;34.90;50.10;;;;;;5032367;28;20029;-71
2022/06/30 07:31:24;;;;;;;1.25;1.10;;;35.10;47.90;;;;;;5031710;28;20030;-71
2022/06/30 07:33:49;;;;;;;1.30;1.20;;;35.40;48.20;;;;;;5032033;28;20029;-71
2022/06/30 07:36:16;;;;;;;3.85;1.40;;;35.70;47.50;;;;;;5032454;28;20041;-72
2022/06/30 07:38:42;;;;;;;1.50;1.20;;;35.70;47.70;;;;;;5033462;28;20428;-69
2022/06/30 07:41:08;;;;;;;1.48;1.15;;;35.80;46.90;;;;;;5036061;28;20091;-71
2022/06/30 07:43:33;;;;;;;1.33;1.05;;;36.00;46.80;;;;;;5035532;28;20037;-71
2022/06/30 07:45:59;;;;;;;2.22;1.48;;;36.10;47.10;;;;;;5036306;28;20108;-71
2022/06/30 07:48:25;;;;;;;1.35;1.20;;;36.40;47.30;;;;;;5035910;28;20060;-70
2022/06/30 07:50:50;;;;;;;1.35;1.25;;;36.40;46.90;;;;;;5034941;28;20087;-71
2022/06/30 07:53:16;;;;;;;2.35;1.20;;;36.50;46.30;;;;;;5035624;28;20032;-71
2022/06/30 07:55:42;;;;;;;1.70;1.50;;;36.60;46.30;;;;;;5035476;28;20038;-71
2022/06/30 07:58:08;;;;;;;1.40;1.30;;;36.50;46.60;;;;;;5035671;28;20049;-71
2022/06/30 08:00:34;;;;;;;1.40;1.30;;;36.30;46.60;;;;;;5035523;28;20060;-71
2022/06/30 08:02:59;;;;;;;4.10;1.50;;;36.10;47.20;;;;;;5035402;28;20030;-71
2022/06/30 08:05:25;;;;;;;1.52;1.27;;;35.80;47.20;;;;;;5035813;28;20104;-71
2022/06/30 08:07:51;;;;;;;1.60;1.50;;;35.60;47.30;;;;;;5034885;28;20124;-71
2022/06/30 08:10:16;;;;;;;1.77;1.40;;;35.40;47.70;;;;;;5035680;28;20045;-71
2022/06/30 08:12:42;;;;;;;3.00;1.73;;;35.20;48.10;;;;;;5017446;28;20473;-71
2022/06/30 08:15:08;;;;;;;1.40;1.20;;;35.00;47.50;;;;;;5035490;28;20025;-70
2022/06/30 08:17:34;;;;;;;2.20;1.70;;;34.70;47.90;;;;;;5034746;28;20436;-70
2022/06/30 08:20:00;;;;;;;2.15;1.60;;;34.50;48.40;;;;;;5035515;28;20038;-70
2022/06/30 08:22:26;;;;;;;1.65;1.40;;;34.20;49.30;;;;;;5035331;28;20034;-70
2022/06/30 08:24:52;;;;;;;1.67;1.52;;;33.90;49.70;;;;;;5034670;28;20033;-70
2022/06/30 08:27:18;;;;;;;1.67;1.13;;;33.70;50.90;;;;;;5034529;28;20046;-70
2022/06/30 08:29:43;;;;;;;1.75;1.50;;;33.50;50.30;;;;;;5034880;28;20033;-70
2022/06/30 08:32:09;;;;;;;2.38;1.70;;;33.30;50.40;;;;;;5035233;28;20029;-71
2022/06/30 08:34:35;;;;;;;2.03;1.70;;;33.10;50.60;;;;;;5034885;28;20489;-71
2022/06/30 08:37:01;;;;;;;2.88;1.60;;;33.00;51.10;;;;;;5035102;28;20025;-71
2022/06/30 08:42:13;;;;;;;1.58;1.48;;;32.70;51.60;;;;;;5034811;28;20036;-70
2022/06/30 08:44:41;;;;;;;1.83;1.52;;;32.40;51.90;;;;;;5034461;28;20095;-71
2022/06/30 08:47:08;;;;;;;2.55;1.73;;;32.20;52.40;;;;;;5034794;28;20029;-70
2022/06/30 08:49:35;;;;;;;1.80;1.65;;;32.10;52.70;;;;;;5034337;28;20025;-70
2022/06/30 08:52:01;;;;;;;1.75;1.50;;;31.90;52.30;;;;;;5034948;28;20037;-71
2022/06/30 08:54:28;;;;;;;1.50;1.30;;;31.80;52.90;;;;;;5034945;28;20036;-70
2022/06/30 08:56:59;;;;;;;3.13;1.67;;;31.70;52.10;;;;;;5034305;28;20044;-71
2022/06/30 08:59:25;;;;;;;2.00;1.55;;;31.70;52.00;;;;;;5035237;28;20034;-70
2022/06/30 09:01:54;;;;;;;1.50;1.30;;;31.60;53.10;;;;;;5034205;28;20040;-71
2022/06/30 09:04:21;;;;;;;3.80;1.90;;;31.60;54.30;;;;;;5034897;28;20116;-71
2022/06/30 09:06:46;;;;;;;2.22;1.52;;;31.50;52.70;;;;;;5034274;28;20021;-71
2022/06/30 09:09:12;;;;;;;1.77;1.50;;;31.50;52.70;;;;;;5034599;28;20052;-71
2022/06/30 09:11:55;;;;;;;1.90;1.70;;;31.40;52.60;;;;;;5033905;28;20075;-72
2022/06/30 09:14:34;;;;;;;2.17;1.60;;;31.30;53.20;;;;;;5034692;28;20032;-71
2022/06/30 09:17:01;;;;;;;1.40;1.30;;;31.20;53.70;;;;;;5034000;28;20032;-71
2022/06/30 09:19:28;;;;;;;3.17;1.70;;;31.30;54.40;;;;;;5034465;28;20088;-72
2022/06/30 09:22:07;;;;;;;1.75;1.65;;;31.20;54.10;;;;;;5016082;28;20367;-72
2022/06/30 09:24:34;;;;;;;3.42;1.58;;;31.10;54.60;;;;;;5034556;28;20076;-72
2022/06/30 09:27:11;;;;;;;2.00;1.80;;;31.00;55.20;;;;;;5033887;28;20481;-72
2022/06/30 09:30:09;;;;;;;2.42;1.83;;;31.00;55.40;;;;;;5034179;28;20041;-71
2022/06/30 09:32:54;;;;;;;5.38;1.90;;;31.00;55.30;;;;;;5033556;28;20029;-71
2022/06/30 09:35:25;;;;;;;2.92;1.83;;;31.00;55.40;;;;;;5033991;28;20033;-72
2022/06/30 09:38:03;;;;;;;1.80;1.70;;;31.00;54.90;;;;;;5033894;28;20022;-72
2022/06/30 09:40:31;;;;;;;1.92;1.73;;;31.00;56.50;;;;;;5034092;28;20385;-71
2022/06/30 09:42:57;;;;;;;2.67;1.88;;;30.90;56.40;;;;;;5033477;28;20034;-71
2022/06/30 09:45:38;;;;;;;1.95;1.75;;;30.90;55.90;;;;;;5033968;28;20048;-71
2022/06/30 09:48:04;;;;;;;;;;;30.90;54.70;;;;;;5034038;28;20071;-71
2022/06/30 09:50:29;;;;;;;2.85;1.50;;;30.90;54.60;;;;;;5033559;28;19905;-71
2022/06/30 09:53:07;;;;;;;2.55;1.75;;;30.80;54.10;;;;;;5033397;28;20148;-72
2022/06/30 09:55:48;;;;;;;3.25;1.50;;;30.90;54.00;;;;;;5033564;28;20029;-71
2022/06/30 09:58:33;;;;;;;3.53;1.58;;;30.90;53.90;;;;;;5033415;28;20029;-71
2022/06/30 10:01:00;;;;;;;2.08;1.50;;;30.80;53.60;;;;;;5032764;28;20371;-71
2022/06/30 10:03:26;;;;;;;2.33;2.03;;;30.90;53.70;;;;;;5033080;28;20532;-71
2022/06/30 10:06:15;;;;;;;4.88;2.00;;;30.90;53.90;;;;;;5033288;28;20095;-71
2022/06/30 10:08:41;;;;;;;1.60;1.50;;;31.00;53.90;;;;;;5033335;28;20029;-73
2022/06/30 10:11:08;;;;;;;2.90;1.80;;;31.00;53.50;;;;;;5033033;28;20096;-71
2022/06/30 10:13:39;;;;;;;1.92;1.73;;;31.00;53.60;;;;;;5033386;28;20036;-71
2022/06/30 10:16:06;;;;;;;3.20;1.90;;;31.00;53.50;;;;;;5032926;28;20037;-72
2022/06/30 10:18:35;;;;;;;2.00;1.80;;;31.00;53.90;;;;;;5033002;28;20049;-71
2022/06/30 10:21:02;;;;;;;2.05;1.80;;;31.00;54.00;;;;;;5032170;28;20032;-71
2022/06/30 10:23:28;;;;;;;2.22;1.60;;;31.00;54.10;;;;;;5033040;28;20038;-71
2022/06/30 10:25:54;;;;;;;2.65;1.80;;;31.00;54.60;;;;;;5032766;28;20108;-71
2022/06/30 10:28:25;;;;;;;2.72;1.90;;;31.00;54.90;;;;;;5033008;28;20086;-71
2022/06/30 10:31:08;;;;;;;2.85;1.67;;;31.00;54.30;;;;;;5032504;28;20091;-72
2022/06/30 10:33:52;;;;;;;2.55;2.15;;;31.00;55.40;;;;;;5033058;28;20112;-71
2022/06/30 10:36:49;;;;;;;2.40;2.20;;;31.00;55.80;;;;;;5033000;28;20068;-71
2022/06/30 10:39:45;;;;;;;2.10;1.90;;;31.00;55.30;;;;;;5033006;28;20436;-72
2022/06/30 10:42:30;;;;;;;2.03;1.83;;;31.00;55.70;;;;;;5032776;28;20498;-71
2022/06/30 10:44:56;;;;;;;4.30;1.83;;;31.00;55.90;;;;;;5032024;28;20033;-72
2022/06/30 10:47:21;;;;;;;2.47;1.85;;;31.10;56.40;;;;;;5032503;28;20029;-71
2022/06/30 10:49:54;;;;;;;3.40;2.30;;;31.10;56.40;;;;;;5032276;28;20026;-72
2022/06/30 10:52:25;;;;;;;2.05;1.88;;;31.10;55.60;;;;;;5032859;28;20036;-71
2022/06/30 10:55:00;;;;;;;3.45;1.90;;;31.10;56.60;;;;;;5032242;28;20034;-71
2022/06/30 10:57:26;;;;;;;1.88;1.60;;;31.10;56.10;;;;;;5032554;28;20032;-71
2022/06/30 10:59:51;;;;;;;2.55;2.20;;;31.10;55.40;;;;;;5032100;28;20029;-70
2022/06/30 11:02:24;;;;;;;2.28;1.80;;;31.10;55.40;;;;;;5032606;28;20064;-71
2022/06/30 11:05:11;;;;;;;2.10;1.90;;;31.10;55.80;;;;;;5032145;28;20034;-72
2022/06/30 11:07:37;;;;;;;2.78;1.98;;;31.20;56.70;;;;;;5032652;28;20537;-72
2022/06/30 11:10:03;;;;;;;4.60;2.47;;;31.20;56.40;;;;;;5032355;28;20026;-72
2022/06/30 11:12:29;;;;;;;1.80;1.70;;;31.20;55.60;;;;;;5033058;28;20087;-71
2022/06/30 11:14:57;;;;;;;3.13;2.65;;;31.30;56.50;;;;;;5036426;28;20462;-72
2022/06/30 11:17:26;;;;;;;2.78;1.80;;;31.30;56.20;;;;;;5037036;28;20026;-72
2022/06/30 11:20:05;;;;;;;2.78;2.50;;;31.30;56.70;;;;;;5036041;28;20065;-72
2022/06/30 11:22:32;;;;;;;2.50;2.25;;;31.40;56.00;;;;;;5036300;28;20153;-70
2022/06/30 11:25:03;;;;;;;2.92;2.03;;;31.40;55.20;;;;;;5035577;28;20033;-71
2022/06/30 11:27:36;;;;;;;2.30;2.05;;;31.40;55.40;;;;;;5036337;28;20120;-70
2022/06/30 11:30:08;;;;;;;2.30;1.98;;;31.40;55.90;;;;;;5035421;28;20025;-70
2022/06/30 11:32:34;;;;;;;2.10;1.90;;;31.40;56.10;;;;;;5036526;28;20037;-70
2022/06/30 11:35:00;;;;;;;3.13;2.33;;;31.30;56.20;;;;;;5035646;28;20029;-72
2022/06/30 11:37:28;;;;;;;4.00;2.35;;;31.40;56.30;;;;;;5036333;28;20079;-70
2022/06/30 11:39:58;;;;;;;2.78;2.05;;;31.40;56.20;;;;;;5035853;28;20025;-72
2022/06/30 11:42:24;;;;;;;3.15;2.17;;;31.40;56.90;;;;;;5036145;28;20033;-72
2022/06/30 11:44:50;;;;;;;4.97;1.83;;;31.50;57.00;;;;;;5035831;28;20091;-70
2022/06/30 11:47:17;;;;;;;2.53;1.90;;;31.40;55.10;;;;;;5036178;28;20449;-69
2022/06/30 11:49:57;;;;;;;2.60;1.80;;;31.40;55.10;;;;;;5036093;28;20412;-70
2022/06/30 11:52:23;;;;;;;;;;;31.40;54.40;;;;;;5036143;28;20029;-70
2022/06/30 11:54:57;;;;;;;2.58;2.20;;;31.40;54.60;;;;;;5035628;28;19928;-72
2022/06/30 11:57:29;;;;;;;2.95;2.30;;;31.40;54.40;;;;;;5035902;28;20140;-71
2022/06/30 12:00:03;;;;;;;2.15;1.95;;;31.40;54.90;;;;;;5035540;28;20030;-71
2022/06/30 12:02:29;;;;;;;4.30;2.03;;;31.40;55.40;;;;;;5035737;28;20112;-70
2022/06/30 12:04:57;;;;;;;3.15;2.35;;;31.40;56.50;;;;;;5035380;28;20099;-71
2022/06/30 12:07:24;;;;;;;2.85;2.38;;;31.30;55.90;;;;;;5035806;28;20036;-71
2022/06/30 12:09:52;;;;;;;4.45;2.10;;;31.40;55.90;;;;;;5035098;28;20373;-71
2022/06/30 12:12:19;;;;;;;2.88;1.98;;;31.40;56.60;;;;;;5035788;28;20038;-71
2022/06/30 12:14:45;;;;;;;2.17;1.98;;;31.30;56.60;;;;;;5035402;28;20030;-70
2022/06/30 12:17:13;;;;;;;2.50;2.00;;;31.40;56.20;;;;;;5035030;28;20453;-71
2022/06/30 12:19:43;;;;;;;3.75;2.45;;;31.30;56.50;;;;;;5035465;28;20479;-70
2022/06/30 12:22:08;;;;;;;2.53;2.33;;;31.30;56.70;;;;;;5034695;28;20033;-71
2022/06/30 12:24:36;;;;;;;2.92;1.92;;;31.30;57.20;;;;;;5034109;28;20107;-71
2022/06/30 12:27:01;;;;;;;2.72;2.30;;;31.30;56.50;;;;;;5034691;28;20052;-70
2022/06/30 12:29:28;;;;;;;3.20;2.13;;;31.30;56.50;;;;;;5035144;28;20029;-70
2022/06/30 12:31:57;;;;;;;3.10;2.45;;;31.30;55.80;;;;;;5034908;28;20124;-71
2022/06/30 12:34:24;;;;;;;3.33;2.60;;;31.30;55.60;;;;;;5035175;28;20026;-70
2022/06/30 12:36:49;;;;;;;2.47;2.13;;;31.30;56.10;;;;;;5035152;28;20037;-71
2022/06/30 12:39:16;;;;;;;3.72;2.38;;;31.30;56.10;;;;;;5034482;28;20021;-71
2022/06/30 12:41:43;;;;;;;2.58;2.38;;;31.30;56.20;;;;;;5034967;28;20033;-70
2022/06/30 12:44:10;;;;;;;2.50;2.20;;;31.30;55.80;;;;;;5034336;28;20091;-70
2022/06/30 12:46:42;;;;;;;3.25;2.30;;;31.30;55.20;;;;;;5034814;28;20071;-71
2022/06/30 12:49:20;;;;;;;4.22;2.38;;;31.30;55.10;;;;;;5034589;28;20446;-70
2022/06/30 12:51:46;;;;;;;2.85;1.88;;;31.30;55.00;;;;;;5035033;28;20035;-70
2022/06/30 12:54:16;;;;;;;3.50;2.88;;;31.30;55.50;;;;;;5034571;28;20029;-71
2022/06/30 12:56:50;;;;;;;2.22;1.92;;;31.30;56.00;;;;;;5034829;28;20057;-70
2022/06/30 12:59:17;;;;;;;3.38;2.28;;;31.30;57.10;;;;;;5034266;28;20030;-71
2022/06/30 13:01:56;;;;;;;2.47;2.10;;;31.40;56.90;;;;;;5034545;28;20034;-71
2022/06/30 13:04:25;;;;;;;2.90;2.40;;;31.40;56.40;;;;;;5034425;28;20147;-71